sensor_id;sensor_type;location;lat;lon;timestamp;pressure;altitude;pressure_sealevel;temperature;humidity
64679;BME280;51094;53.864;27.676;2023-02-04T00:01:23;98947.13;;;-0.68;65.03
64679;BME280;51094;53.864;27.676;2023-02-04T00:03:50;98925.91;;;-0.70;65.10
64679;BME280;51094;53.864;27.676;2023-02-04T00:06:17;98946.84;;;-0.58;65.31
64679;BME280;51094;53.864;27.676;2023-02-04T00:08:44;98877.63;;;-1.05;65.24
64679;BME280;51094;53.864;27.676;2023-02-04T00:11:11;98898.81;;;-1.02;65.24
64679;BME280;51094;53.864;27.676;2023-02-04T00:13:38;98936.06;;;-0.68;65.71
64679;BME280;51094;53.864;27.676;2023-02-04T00:16:05;98905.06;;;-0.84;65.65
64679;BME280;51094;53.864;27.676;2023-02-04T00:18:32;98921.69;;;-0.71;65.68
64679;BME280;51094;53.864;27.676;2023-02-04T00:20:59;98883.31;;;-0.95;65.71
64679;BME280;51094;53.864;27.676;2023-02-04T00:23:26;98897.88;;;-0.99;65.14
64679;BME280;51094;53.864;27.676;2023-02-04T00:25:53;98875.97;;;-1.34;66.04
64679;BME280;51094;53.864;27.676;2023-02-04T00:28:20;98956.53;;;-0.70;66.05
64679;BME280;51094;53.864;27.676;2023-02-04T00:30:46;98934.91;;;-0.86;65.95
64679;BME280;51094;53.864;27.676;2023-02-04T00:33:13;98920.19;;;-1.06;66.11
64679;BME280;51094;53.864;27.676;2023-02-04T00:35:41;98871.59;;;-1.30;66.17
64679;BME280;51094;53.864;27.676;2023-02-04T00:38:08;98931.06;;;-0.99;66.32
64679;BME280;51094;53.864;27.676;2023-02-04T00:40:36;98845.53;;;-1.40;66.57
64679;BME280;51094;53.864;27.676;2023-02-04T00:43:04;98919.59;;;-0.86;66.55
64679;BME280;51094;53.864;27.676;2023-02-04T00:45:31;98947.91;;;-0.65;66.62
64679;BME280;51094;53.864;27.676;2023-02-04T00:47:58;98926.66;;;-0.94;66.69
64679;BME280;51094;53.864;27.676;2023-02-04T00:50:25;98938.16;;;-0.81;66.17
64679;BME280;51094;53.864;27.676;2023-02-04T00:52:51;98867.97;;;-1.23;66.45
64679;BME280;51094;53.864;27.676;2023-02-04T00:55:18;98757.25;;;-2.03;66.44
64679;BME280;51094;53.864;27.676;2023-02-04T00:57:45;98974.28;;;-0.65;66.32
64679;BME280;51094;53.864;27.676;2023-02-04T01:00:16;98973.63;;;-0.72;66.60
64679;BME280;51094;53.864;27.676;2023-02-04T01:02:46;98956.44;;;-0.94;66.18
64679;BME280;51094;53.864;27.676;2023-02-04T01:05:13;98901.38;;;-1.31;66.71
64679;BME280;51094;53.864;27.676;2023-02-04T01:07:40;98920.19;;;-1.35;66.28
64679;BME280;51094;53.864;27.676;2023-02-04T01:10:07;98932.03;;;-1.32;67.05
64679;BME280;51094;53.864;27.676;2023-02-04T01:12:34;98961.22;;;-1.13;67.28
64679;BME280;51094;53.864;27.676;2023-02-04T01:15:01;98930.13;;;-1.26;67.39
64679;BME280;51094;53.864;27.676;2023-02-04T01:17:30;98966.13;;;-1.06;67.32
64679;BME280;51094;53.864;27.676;2023-02-04T01:19:57;98987.06;;;-0.94;67.50
64679;BME280;51094;53.864;27.676;2023-02-04T01:22:23;98962.22;;;-1.19;67.34
64679;BME280;51094;53.864;27.676;2023-02-04T01:24:50;98952.03;;;-1.19;67.42
64679;BME280;51094;53.864;27.676;2023-02-04T01:27:35;98822.63;;;-2.02;67.90
64679;BME280;51094;53.864;27.676;2023-02-04T01:30:04;98926.81;;;-1.29;67.52
64679;BME280;51094;53.864;27.676;2023-02-04T01:32:32;98920.94;;;-1.31;67.27
64679;BME280;51094;53.864;27.676;2023-02-04T01:34:59;98993.69;;;-0.87;67.40
64679;BME280;51094;53.864;27.676;2023-02-04T01:37:26;98935.09;;;-1.21;67.48
64679;BME280;51094;53.864;27.676;2023-02-04T01:39:52;98970.56;;;-1.12;67.16
64679;BME280;51094;53.864;27.676;2023-02-04T01:42:19;98918.09;;;-1.52;67.03
64679;BME280;51094;53.864;27.676;2023-02-04T01:44:46;98992.47;;;-1.05;67.59
64679;BME280;51094;53.864;27.676;2023-02-04T01:47:14;98976.00;;;-1.24;67.39
64679;BME280;51094;53.864;27.676;2023-02-04T01:49:41;98919.19;;;-1.60;67.32
64679;BME280;51094;53.864;27.676;2023-02-04T01:52:09;98916.66;;;-1.62;67.85
64679;BME280;51094;53.864;27.676;2023-02-04T01:54:36;99000.47;;;-1.17;67.46
64679;BME280;51094;53.864;27.676;2023-02-04T01:57:05;98998.34;;;-1.02;67.46
64679;BME280;51094;53.864;27.676;2023-02-04T01:59:35;99008.75;;;-1.09;67.66
64679;BME280;51094;53.864;27.676;2023-02-04T02:02:38;99016.59;;;-1.17;67.62
64679;BME280;51094;53.864;27.676;2023-02-04T02:05:13;98940.63;;;-1.68;67.63
64679;BME280;51094;53.864;27.676;2023-02-04T02:07:40;98943.09;;;-1.64;67.64
64679;BME280;51094;53.864;27.676;2023-02-04T02:10:10;99014.97;;;-1.19;67.87
64679;BME280;51094;53.864;27.676;2023-02-04T02:12:37;99002.84;;;-1.42;67.65
64679;BME280;51094;53.864;27.676;2023-02-04T02:15:05;98975.13;;;-1.54;67.92
64679;BME280;51094;53.864;27.676;2023-02-04T02:17:33;99006.56;;;-1.54;67.67
64679;BME280;51094;53.864;27.676;2023-02-04T02:20:00;98972.13;;;-1.70;67.86
64679;BME280;51094;53.864;27.676;2023-02-04T02:25:13;99050.78;;;-1.55;68.10
64679;BME280;51094;53.864;27.676;2023-02-04T02:27:42;99019.09;;;-1.79;68.11
64679;BME280;51094;53.864;27.676;2023-02-04T02:30:10;99039.78;;;-1.57;68.27
64679;BME280;51094;53.864;27.676;2023-02-04T02:32:37;99041.81;;;-1.71;68.32
64679;BME280;51094;53.864;27.676;2023-02-04T02:35:05;98998.97;;;-1.89;68.31
64679;BME280;51094;53.864;27.676;2023-02-04T02:37:32;98935.38;;;-2.28;68.29
64679;BME280;51094;53.864;27.676;2023-02-04T02:39:59;98979.34;;;-2.20;68.79
64679;BME280;51094;53.864;27.676;2023-02-04T02:42:26;98951.16;;;-2.49;68.19
64679;BME280;51094;53.864;27.676;2023-02-04T02:44:53;98950.44;;;-2.56;68.69
64679;BME280;51094;53.864;27.676;2023-02-04T02:47:22;98964.69;;;-2.47;68.77
64679;BME280;51094;53.864;27.676;2023-02-04T02:49:51;99018.47;;;-2.24;68.99
64679;BME280;51094;53.864;27.676;2023-02-04T02:52:19;98935.16;;;-2.93;68.73
64679;BME280;51094;53.864;27.676;2023-02-04T02:54:46;99010.31;;;-2.38;68.87
64679;BME280;51094;53.864;27.676;2023-02-04T02:57:16;98842.81;;;-3.35;68.81
64679;BME280;51094;53.864;27.676;2023-02-04T02:59:44;98949.91;;;-2.69;68.82
64679;BME280;51094;53.864;27.676;2023-02-04T03:02:14;99073.13;;;-2.00;68.58
64679;BME280;51094;53.864;27.676;2023-02-04T03:04:43;99085.09;;;-2.04;69.25
64679;BME280;51094;53.864;27.676;2023-02-04T03:07:14;99081.16;;;-2.17;69.39
64679;BME280;51094;53.864;27.676;2023-02-04T03:09:43;99092.59;;;-1.97;69.35
64679;BME280;51094;53.864;27.676;2023-02-04T03:12:10;99055.69;;;-2.17;69.26
64679;BME280;51094;53.864;27.676;2023-02-04T03:14:38;99100.03;;;-1.88;69.56
64679;BME280;51094;53.864;27.676;2023-02-04T03:17:07;99037.44;;;-2.37;69.17
64679;BME280;51094;53.864;27.676;2023-02-04T03:19:35;99074.41;;;-2.19;69.41
64679;BME280;51094;53.864;27.676;2023-02-04T03:22:04;99081.97;;;-2.16;69.35
64679;BME280;51094;53.864;27.676;2023-02-04T03:24:32;99123.75;;;-1.85;69.47
64679;BME280;51094;53.864;27.676;2023-02-04T03:26:59;99095.13;;;-1.97;69.70
64679;BME280;51094;53.864;27.676;2023-02-04T03:29:26;99093.00;;;-2.16;69.55
64679;BME280;51094;53.864;27.676;2023-02-04T03:31:56;99125.28;;;-1.78;69.31
64679;BME280;51094;53.864;27.676;2023-02-04T03:34:25;99127.06;;;-1.81;69.03
64679;BME280;51094;53.864;27.676;2023-02-04T03:36:52;99073.63;;;-2.21;68.84
64679;BME280;51094;53.864;27.676;2023-02-04T03:39:19;98983.97;;;-2.74;68.98
64679;BME280;51094;53.864;27.676;2023-02-04T03:41:46;99054.47;;;-2.39;68.80
64679;BME280;51094;53.864;27.676;2023-02-04T03:44:13;99023.69;;;-2.67;69.03
64679;BME280;51094;53.864;27.676;2023-02-04T03:46:39;99135.88;;;-1.96;69.41
64679;BME280;51094;53.864;27.676;2023-02-04T03:49:06;99132.47;;;-1.95;69.25
64679;BME280;51094;53.864;27.676;2023-02-04T03:51:33;99129.88;;;-1.93;68.96
64679;BME280;51094;53.864;27.676;2023-02-04T03:54:00;99134.19;;;-1.97;69.08
64679;BME280;51094;53.864;27.676;2023-02-04T03:56:26;99093.34;;;-2.31;68.86
64679;BME280;51094;53.864;27.676;2023-02-04T03:58:53;99137.88;;;-2.10;69.18
64679;BME280;51094;53.864;27.676;2023-02-04T04:01:20;99099.66;;;-2.49;68.78
64679;BME280;51094;53.864;27.676;2023-02-04T04:03:47;99154.28;;;-2.22;68.86
64679;BME280;51094;53.864;27.676;2023-02-04T04:06:14;99156.06;;;-2.25;68.77
64679;BME280;51094;53.864;27.676;2023-02-04T04:08:40;99101.91;;;-2.75;69.39
64679;BME280;51094;53.864;27.676;2023-02-04T04:11:07;99063.00;;;-2.82;69.44
64679;BME280;51094;53.864;27.676;2023-02-04T04:13:34;99116.63;;;-2.49;69.55
64679;BME280;51094;53.864;27.676;2023-02-04T04:16:01;99140.09;;;-2.33;68.96
64679;BME280;51094;53.864;27.676;2023-02-04T04:18:30;99144.22;;;-2.28;69.12
64679;BME280;51094;53.864;27.676;2023-02-04T04:20:58;99162.53;;;-2.11;69.05
64679;BME280;51094;53.864;27.676;2023-02-04T04:23:25;99073.63;;;-2.61;69.17
64679;BME280;51094;53.864;27.676;2023-02-04T04:25:52;99171.03;;;-2.12;68.71
64679;BME280;51094;53.864;27.676;2023-02-04T04:28:19;99152.78;;;-2.32;68.64
64679;BME280;51094;53.864;27.676;2023-02-04T04:30:45;99187.44;;;-2.23;68.86
64679;BME280;51094;53.864;27.676;2023-02-04T04:33:13;99109.56;;;-2.77;68.41
64679;BME280;51094;53.864;27.676;2023-02-04T04:35:39;99178.38;;;-2.38;69.14
64679;BME280;51094;53.864;27.676;2023-02-04T04:38:06;99200.41;;;-2.36;69.09
64679;BME280;51094;53.864;27.676;2023-02-04T04:40:33;99032.56;;;-3.29;69.15
64679;BME280;51094;53.864;27.676;2023-02-04T04:43:00;99160.72;;;-2.47;68.94
64679;BME280;51094;53.864;27.676;2023-02-04T04:45:27;99140.72;;;-2.64;69.06
64679;BME280;51094;53.864;27.676;2023-02-04T04:47:53;99091.19;;;-2.92;69.46
64679;BME280;51094;53.864;27.676;2023-02-04T04:50:20;99168.38;;;-2.47;69.39
64679;BME280;51094;53.864;27.676;2023-02-04T04:52:47;99156.13;;;-2.72;69.13
64679;BME280;51094;53.864;27.676;2023-02-04T04:55:14;99171.91;;;-2.54;68.75
64679;BME280;51094;53.864;27.676;2023-02-04T04:57:41;99207.91;;;-2.28;69.57
64679;BME280;51094;53.864;27.676;2023-02-04T05:00:13;99157.00;;;-2.73;68.97
64679;BME280;51094;53.864;27.676;2023-02-04T05:02:40;99238.47;;;-2.28;69.64
64679;BME280;51094;53.864;27.676;2023-02-04T05:05:08;99185.31;;;-2.46;69.00
64679;BME280;51094;53.864;27.676;2023-02-04T05:07:36;99208.97;;;-2.40;68.62
64679;BME280;51094;53.864;27.676;2023-02-04T05:10:03;99224.34;;;-2.46;68.66
64679;BME280;51094;53.864;27.676;2023-02-04T05:12:31;99209.06;;;-2.44;69.33
64679;BME280;51094;53.864;27.676;2023-02-04T05:14:57;99162.94;;;-2.74;69.28
64679;BME280;51094;53.864;27.676;2023-02-04T05:17:24;99167.44;;;-2.88;68.61
64679;BME280;51094;53.864;27.676;2023-02-04T05:19:53;99227.78;;;-2.47;68.42
64679;BME280;51094;53.864;27.676;2023-02-04T05:22:20;99208.00;;;-2.79;68.83
64679;BME280;51094;53.864;27.676;2023-02-04T05:24:47;99235.56;;;-2.56;68.94
64679;BME280;51094;53.864;27.676;2023-02-04T05:27:14;99210.53;;;-2.79;68.76
64679;BME280;51094;53.864;27.676;2023-02-04T05:29:41;99248.47;;;-2.63;69.12
64679;BME280;51094;53.864;27.676;2023-02-04T05:32:07;99245.94;;;-2.65;69.37
64679;BME280;51094;53.864;27.676;2023-02-04T05:34:34;99256.22;;;-2.71;68.60
64679;BME280;51094;53.864;27.676;2023-02-04T05:37:01;99232.00;;;-2.93;68.98
64679;BME280;51094;53.864;27.676;2023-02-04T05:39:28;99212.13;;;-3.22;68.75
64679;BME280;51094;53.864;27.676;2023-02-04T05:41:54;99008.31;;;-4.50;68.51
64679;BME280;51094;53.864;27.676;2023-02-04T05:44:21;99253.47;;;-3.08;68.67
64679;BME280;51094;53.864;27.676;2023-02-04T05:46:48;99251.91;;;-3.18;68.46
64679;BME280;51094;53.864;27.676;2023-02-04T05:49:15;99285.66;;;-3.07;69.00
64679;BME280;51094;53.864;27.676;2023-02-04T05:51:42;99217.75;;;-3.57;68.54
64679;BME280;51094;53.864;27.676;2023-02-04T05:54:08;99222.00;;;-3.58;68.98
64679;BME280;51094;53.864;27.676;2023-02-04T05:56:35;99283.31;;;-3.21;69.47
64679;BME280;51094;53.864;27.676;2023-02-04T05:59:02;99245.63;;;-3.50;69.51
64679;BME280;51094;53.864;27.676;2023-02-04T06:01:29;99294.28;;;-3.17;68.93
64679;BME280;51094;53.864;27.676;2023-02-04T06:03:56;99276.53;;;-3.20;69.56
64679;BME280;51094;53.864;27.676;2023-02-04T06:06:22;99273.00;;;-3.12;68.84
64679;BME280;51094;53.864;27.676;2023-02-04T06:08:49;99279.63;;;-3.02;69.18
64679;BME280;51094;53.864;27.676;2023-02-04T06:11:16;99303.81;;;-2.76;69.21
64679;BME280;51094;53.864;27.676;2023-02-04T06:13:42;99315.59;;;-2.69;68.97
64679;BME280;51094;53.864;27.676;2023-02-04T06:16:09;99109.78;;;-3.87;68.23
64679;BME280;51094;53.864;27.676;2023-02-04T06:18:36;99308.66;;;-2.61;68.22
64679;BME280;51094;53.864;27.676;2023-02-04T06:21:03;99317.00;;;-2.53;67.96
64679;BME280;51094;53.864;27.676;2023-02-04T06:23:30;99314.69;;;-2.66;67.25
64679;BME280;51094;53.864;27.676;2023-02-04T06:26:01;99322.91;;;-2.52;68.20
64679;BME280;51094;53.864;27.676;2023-02-04T06:28:28;99307.59;;;-2.49;68.06
64679;BME280;51094;53.864;27.676;2023-02-04T06:30:55;99326.03;;;-2.35;67.36
64679;BME280;51094;53.864;27.676;2023-02-04T06:33:22;99331.94;;;-2.33;67.60
64679;BME280;51094;53.864;27.676;2023-02-04T06:35:49;99334.53;;;-2.36;67.14
64679;BME280;51094;53.864;27.676;2023-02-04T06:38:17;99343.88;;;-2.37;66.81
64679;BME280;51094;53.864;27.676;2023-02-04T06:40:45;99344.78;;;-2.41;66.80
64679;BME280;51094;53.864;27.676;2023-02-04T06:43:15;99343.03;;;-2.37;66.48
64679;BME280;51094;53.864;27.676;2023-02-04T06:45:42;99342.03;;;-2.27;66.26
64679;BME280;51094;53.864;27.676;2023-02-04T06:48:11;99349.56;;;-2.21;65.83
64679;BME280;51094;53.864;27.676;2023-02-04T06:50:41;99334.69;;;-2.45;65.83
64679;BME280;51094;53.864;27.676;2023-02-04T06:53:07;99363.09;;;-2.19;65.73
64679;BME280;51094;53.864;27.676;2023-02-04T06:55:34;99347.00;;;-2.19;66.03
64679;BME280;51094;53.864;27.676;2023-02-04T06:58:01;99319.13;;;-2.28;65.47
64679;BME280;51094;53.864;27.676;2023-02-04T07:00:28;99370.28;;;-1.94;65.58
64679;BME280;51094;53.864;27.676;2023-02-04T07:02:57;99296.53;;;-2.47;64.82
64679;BME280;51094;53.864;27.676;2023-02-04T07:05:25;99378.88;;;-1.98;64.54
64679;BME280;51094;53.864;27.676;2023-02-04T07:07:52;99374.91;;;-2.15;64.57
64679;BME280;51094;53.864;27.676;2023-02-04T07:10:19;99311.97;;;-2.57;64.95
64679;BME280;51094;53.864;27.676;2023-02-04T07:12:46;99355.53;;;-2.22;65.07
64679;BME280;51094;53.864;27.676;2023-02-04T07:15:13;99370.63;;;-2.13;64.67
64679;BME280;51094;53.864;27.676;2023-02-04T07:17:41;99353.88;;;-2.24;64.90
64679;BME280;51094;53.864;27.676;2023-02-04T07:20:09;99399.38;;;-2.06;65.18
64679;BME280;51094;53.864;27.676;2023-02-04T07:22:36;99391.66;;;-2.02;64.78
64679;BME280;51094;53.864;27.676;2023-02-04T07:25:03;99362.00;;;-2.06;65.38
64679;BME280;51094;53.864;27.676;2023-02-04T07:27:30;99392.09;;;-1.78;64.50
64679;BME280;51094;53.864;27.676;2023-02-04T07:29:57;99403.13;;;-1.78;64.62
64679;BME280;51094;53.864;27.676;2023-02-04T07:32:24;99383.72;;;-1.85;64.17
64679;BME280;51094;53.864;27.676;2023-02-04T07:34:53;99385.38;;;-1.82;64.05
64679;BME280;51094;53.864;27.676;2023-02-04T07:37:19;99351.88;;;-2.09;63.79
64679;BME280;51094;53.864;27.676;2023-02-04T07:39:47;99406.31;;;-1.68;64.14
64679;BME280;51094;53.864;27.676;2023-02-04T07:42:14;99411.31;;;-1.62;63.97
64679;BME280;51094;53.864;27.676;2023-02-04T07:44:50;99400.91;;;-1.51;63.93
64679;BME280;51094;53.864;27.676;2023-02-04T07:47:16;99205.41;;;-2.76;63.35
64679;BME280;51094;53.864;27.676;2023-02-04T07:49:43;99276.78;;;-2.34;63.23
64679;BME280;51094;53.864;27.676;2023-02-04T07:52:10;99368.41;;;-1.83;62.89
64679;BME280;51094;53.864;27.676;2023-02-04T07:54:37;99418.75;;;-1.51;62.75
64679;BME280;51094;53.864;27.676;2023-02-04T07:57:04;99426.47;;;-1.54;63.06
64679;BME280;51094;53.864;27.676;2023-02-04T07:59:31;99452.03;;;-1.57;62.73
64679;BME280;51094;53.864;27.676;2023-02-04T08:01:58;99217.59;;;-2.94;62.68
64679;BME280;51094;53.864;27.676;2023-02-04T08:04:25;99435.84;;;-1.56;63.28
64679;BME280;51094;53.864;27.676;2023-02-04T08:06:52;99394.66;;;-1.80;63.05
64679;BME280;51094;53.864;27.676;2023-02-04T08:09:19;99405.47;;;-1.67;62.74
64679;BME280;51094;53.864;27.676;2023-02-04T08:11:45;99419.66;;;-1.54;63.10
64679;BME280;51094;53.864;27.676;2023-02-04T08:14:12;99394.75;;;-1.84;62.61
64679;BME280;51094;53.864;27.676;2023-02-04T08:16:40;99428.28;;;-1.61;63.05
64679;BME280;51094;53.864;27.676;2023-02-04T08:19:06;99403.06;;;-1.75;63.11
64679;BME280;51094;53.864;27.676;2023-02-04T08:21:33;99448.28;;;-1.38;62.64
64679;BME280;51094;53.864;27.676;2023-02-04T08:24:00;99469.22;;;-1.24;62.56
64679;BME280;51094;53.864;27.676;2023-02-04T08:26:27;99363.31;;;-1.85;62.12
64679;BME280;51094;53.864;27.676;2023-02-04T08:28:54;99454.69;;;-1.20;61.84
64679;BME280;51094;53.864;27.676;2023-02-04T08:31:22;99460.94;;;-1.33;60.71
64679;BME280;51094;53.864;27.676;2023-02-04T08:33:49;99449.34;;;-1.50;61.47
64679;BME280;51094;53.864;27.676;2023-02-04T08:36:16;99418.06;;;-1.59;61.47
64679;BME280;51094;53.864;27.676;2023-02-04T08:38:42;99470.84;;;-1.20;61.15
64679;BME280;51094;53.864;27.676;2023-02-04T08:41:10;99472.53;;;-1.19;60.15
64679;BME280;51094;53.864;27.676;2023-02-04T08:43:37;99460.38;;;-1.49;59.87
64679;BME280;51094;53.864;27.676;2023-02-04T08:46:04;99409.03;;;-1.76;60.57
64679;BME280;51094;53.864;27.676;2023-02-04T08:48:31;99475.44;;;-1.36;60.38
64679;BME280;51094;53.864;27.676;2023-02-04T08:50:58;99484.53;;;-1.24;61.07
64679;BME280;51094;53.864;27.676;2023-02-04T08:53:25;99385.88;;;-1.65;60.77
64679;BME280;51094;53.864;27.676;2023-02-04T08:55:52;99493.31;;;-0.94;60.14
64679;BME280;51094;53.864;27.676;2023-02-04T08:58:18;99437.78;;;-1.24;59.62
64679;BME280;51094;53.864;27.676;2023-02-04T09:00:45;99477.22;;;-0.97;60.00
64679;BME280;51094;53.864;27.676;2023-02-04T09:03:12;99479.78;;;-0.97;59.42
64679;BME280;51094;53.864;27.676;2023-02-04T09:05:39;99417.56;;;-1.33;59.32
64679;BME280;51094;53.864;27.676;2023-02-04T09:08:06;99515.00;;;-0.73;59.68
64679;BME280;51094;53.864;27.676;2023-02-04T09:10:33;99525.34;;;-0.81;59.05
64679;BME280;51094;53.864;27.676;2023-02-04T09:13:00;99512.44;;;-0.73;59.27
64679;BME280;51094;53.864;27.676;2023-02-04T09:15:27;99514.22;;;-0.77;58.90
64679;BME280;51094;53.864;27.676;2023-02-04T09:17:54;99518.78;;;-0.91;58.83
64679;BME280;51094;53.864;27.676;2023-02-04T09:20:30;99521.44;;;-0.97;59.38
64679;BME280;51094;53.864;27.676;2023-02-04T09:22:58;99529.03;;;-0.92;59.42
64679;BME280;51094;53.864;27.676;2023-02-04T09:25:25;99528.78;;;-0.82;59.72
64679;BME280;51094;53.864;27.676;2023-02-04T09:27:52;99437.84;;;-1.29;59.42
64679;BME280;51094;53.864;27.676;2023-02-04T09:30:19;99487.28;;;-0.90;59.39
64679;BME280;51094;53.864;27.676;2023-02-04T09:32:45;99525.00;;;-0.62;59.07
64679;BME280;51094;53.864;27.676;2023-02-04T09:35:12;99507.97;;;-0.63;59.47
64679;BME280;51094;53.864;27.676;2023-02-04T09:37:39;99510.13;;;-0.44;59.57
64679;BME280;51094;53.864;27.676;2023-02-04T09:40:17;99433.59;;;-0.87;58.01
64679;BME280;51094;53.864;27.676;2023-02-04T09:42:50;99503.38;;;-0.48;58.65
64679;BME280;51094;53.864;27.676;2023-02-04T09:45:21;99541.84;;;-0.17;58.62
64679;BME280;51094;53.864;27.676;2023-02-04T09:47:50;99506.66;;;-0.43;58.34
64679;BME280;51094;53.864;27.676;2023-02-04T09:50:19;99479.50;;;-0.45;58.09
64679;BME280;51094;53.864;27.676;2023-02-04T09:52:47;99539.16;;;-0.11;57.48
64679;BME280;51094;53.864;27.676;2023-02-04T09:55:17;99545.81;;;-0.04;57.82
64679;BME280;51094;53.864;27.676;2023-02-04T09:57:46;99548.69;;;-0.17;56.97
64679;BME280;51094;53.864;27.676;2023-02-04T10:00:15;99555.31;;;-0.09;57.48
64679;BME280;51094;53.864;27.676;2023-02-04T10:02:42;99551.50;;;0.08;57.17
64679;BME280;51094;53.864;27.676;2023-02-04T10:05:17;99548.63;;;0.21;56.11
64679;BME280;51094;53.864;27.676;2023-02-04T10:07:48;99526.63;;;0.14;56.84
64679;BME280;51094;53.864;27.676;2023-02-04T10:10:22;99548.47;;;0.27;55.98
64679;BME280;51094;53.864;27.676;2023-02-04T10:12:52;99502.28;;;-0.01;55.32
64679;BME280;51094;53.864;27.676;2023-02-04T10:15:21;99565.00;;;0.48;53.80
64679;BME280;51094;53.864;27.676;2023-02-04T10:17:57;99536.38;;;0.34;53.03
64679;BME280;51094;53.864;27.676;2023-02-04T10:20:27;99423.91;;;-0.37;54.63
64679;BME280;51094;53.864;27.676;2023-02-04T10:22:54;99480.91;;;0.02;54.29
64679;BME280;51094;53.864;27.676;2023-02-04T10:25:23;99571.19;;;0.74;54.25
64679;BME280;51094;53.864;27.676;2023-02-04T10:27:56;99453.53;;;0.06;52.53
64679;BME280;51094;53.864;27.676;2023-02-04T10:30:29;99507.56;;;0.27;53.34
64679;BME280;51094;53.864;27.676;2023-02-04T10:33:14;99532.63;;;0.47;53.62
64679;BME280;51094;53.864;27.676;2023-02-04T10:35:45;99512.38;;;0.40;53.86
64679;BME280;51094;53.864;27.676;2023-02-04T10:38:12;99572.81;;;0.78;53.45
64679;BME280;51094;53.864;27.676;2023-02-04T10:40:39;99547.31;;;0.41;53.65
64679;BME280;51094;53.864;27.676;2023-02-04T10:43:14;99591.22;;;0.58;53.85
64679;BME280;51094;53.864;27.676;2023-02-04T10:45:56;99584.00;;;0.40;53.74
64679;BME280;51094;53.864;27.676;2023-02-04T10:48:23;99528.59;;;0.03;53.94
64679;BME280;51094;53.864;27.676;2023-02-04T10:50:51;99536.91;;;0.13;54.68
64679;BME280;51094;53.864;27.676;2023-02-04T10:53:21;99581.59;;;0.33;54.89
64679;BME280;51094;53.864;27.676;2023-02-04T10:56:19;99588.31;;;0.38;55.03
64679;BME280;51094;53.864;27.676;2023-02-04T10:58:47;99554.91;;;0.08;55.09
64679;BME280;51094;53.864;27.676;2023-02-04T11:01:15;99601.88;;;0.41;54.90
64679;BME280;51094;53.864;27.676;2023-02-04T11:03:43;99583.72;;;0.50;54.78
64679;BME280;51094;53.864;27.676;2023-02-04T11:06:19;99593.06;;;0.51;53.70
64679;BME280;51094;53.864;27.676;2023-02-04T11:08:47;99560.56;;;0.21;54.21
64679;BME280;51094;53.864;27.676;2023-02-04T11:11:22;99258.59;;;-1.74;54.78
64679;BME280;51094;53.864;27.676;2023-02-04T11:19:12;99615.78;;;0.29;55.21
64679;BME280;51094;53.864;27.676;2023-02-04T11:21:43;99543.69;;;-0.22;54.66
64679;BME280;51094;53.864;27.676;2023-02-04T11:26:48;99520.88;;;-0.31;54.56
64679;BME280;51094;53.864;27.676;2023-02-04T11:29:36;99617.31;;;0.38;54.95
64679;BME280;51094;53.864;27.676;2023-02-04T11:32:30;99622.47;;;0.35;55.40
64679;BME280;51094;53.864;27.676;2023-02-04T11:35:22;99625.72;;;0.05;55.42
64679;BME280;51094;53.864;27.676;2023-02-04T11:37:49;99623.22;;;0.02;55.72
64679;BME280;51094;53.864;27.676;2023-02-04T11:42:46;99612.34;;;-0.45;58.42
64679;BME280;51094;53.864;27.676;2023-02-04T11:45:14;99636.63;;;-0.26;58.27
64679;BME280;51094;53.864;27.676;2023-02-04T11:47:42;99544.16;;;-0.85;58.64
64679;BME280;51094;53.864;27.676;2023-02-04T11:50:16;99635.69;;;-0.22;59.35
64679;BME280;51094;53.864;27.676;2023-02-04T11:52:45;99621.06;;;-0.15;59.27
64679;BME280;51094;53.864;27.676;2023-02-04T11:55:12;99641.41;;;-0.11;59.64
64679;BME280;51094;53.864;27.676;2023-02-04T11:57:41;99648.09;;;-0.04;60.33
64679;BME280;51094;53.864;27.676;2023-02-04T12:00:23;99641.06;;;0.05;60.52
64679;BME280;51094;53.864;27.676;2023-02-04T12:02:58;99625.13;;;-0.07;60.51
64679;BME280;51094;53.864;27.676;2023-02-04T12:05:42;99604.31;;;0.09;60.46
64679;BME280;51094;53.864;27.676;2023-02-04T12:08:33;99650.66;;;0.33;59.95
64679;BME280;51094;53.864;27.676;2023-02-04T12:13:31;99652.63;;;0.22;59.47
64679;BME280;51094;53.864;27.676;2023-02-04T12:16:03;99564.47;;;-0.79;59.75
64679;BME280;51094;53.864;27.676;2023-02-04T12:18:32;99579.84;;;-0.40;57.74
64679;BME280;51094;53.864;27.676;2023-02-04T12:21:00;99489.13;;;-0.96;57.98
64679;BME280;51094;53.864;27.676;2023-02-04T12:23:28;99655.53;;;0.06;57.70
64679;BME280;51094;53.864;27.676;2023-02-04T12:25:56;99554.63;;;-0.55;58.53
64679;BME280;51094;53.864;27.676;2023-02-04T12:28:23;99581.81;;;-0.13;58.36
64679;BME280;51094;53.864;27.676;2023-02-04T12:30:50;99472.66;;;-0.45;58.09
64679;BME280;51094;53.864;27.676;2023-02-04T12:33:17;99556.09;;;-0.05;56.42
64679;BME280;51094;53.864;27.676;2023-02-04T12:35:44;99658.88;;;0.46;56.24
64679;BME280;51094;53.864;27.676;2023-02-04T12:38:11;99660.47;;;0.50;56.59
64679;BME280;51094;53.864;27.676;2023-02-04T12:40:38;99594.88;;;0.12;56.36
64679;BME280;51094;53.864;27.676;2023-02-04T12:43:05;99672.13;;;0.63;55.47
64679;BME280;51094;53.864;27.676;2023-02-04T12:45:33;99630.69;;;0.11;55.03
64679;BME280;51094;53.864;27.676;2023-02-04T12:48:00;99697.31;;;0.05;55.32
64679;BME280;51094;53.864;27.676;2023-02-04T12:50:27;99600.88;;;-0.69;56.14
64679;BME280;51094;53.864;27.676;2023-02-04T12:52:55;99640.44;;;-0.45;56.40
64679;BME280;51094;53.864;27.676;2023-02-04T12:55:24;99667.59;;;-0.41;56.30
64679;BME280;51094;53.864;27.676;2023-02-04T12:57:52;99684.06;;;-0.56;58.46
64679;BME280;51094;53.864;27.676;2023-02-04T13:00:19;99705.16;;;-0.92;61.96
64679;BME280;51094;53.864;27.676;2023-02-04T13:02:47;99675.53;;;-1.53;65.23
64679;BME280;51094;53.864;27.676;2023-02-04T13:05:15;99709.56;;;-1.56;66.30
64679;BME280;51094;53.864;27.676;2023-02-04T13:07:42;99668.72;;;-2.13;69.34
64679;BME280;51094;53.864;27.676;2023-02-04T13:10:10;99718.66;;;-1.98;70.01
64679;BME280;51094;53.864;27.676;2023-02-04T13:12:37;99717.75;;;-1.95;70.31